sensor_id;sensor_type;location;lat;lon;timestamp;pressure;altitude;pressure_sealevel;temperature;humidity
59757;BME280;45631;51.962;5.974;2023-05-19T00:01:48;102565.28;;;8.88;100.00
59757;BME280;45631;51.962;5.974;2023-05-19T00:04:18;102569.00;;;8.81;100.00
59757;BME280;45631;51.962;5.974;2023-05-19T00:06:49;102566.44;;;8.79;100.00
59757;BME280;45631;51.962;5.974;2023-05-19T00:09:18;102560.50;;;8.73;100.00
59757;BME280;45631;51.962;5.974;2023-05-19T00:11:46;102567.31;;;8.78;100.00
59757;BME280;45631;51.962;5.974;2023-05-19T00:14:15;102560.50;;;8.73;100.00
59757;BME280;45631;51.962;5.974;2023-05-19T00:16:43;102564.88;;;8.72;100.00
59757;BME280;45631;51.962;5.974;2023-05-19T00:19:14;102566.75;;;8.69;100.00
59757;BME280;45631;51.962;5.974;2023-05-19T00:21:42;102562.50;;;8.65;100.00
59757;BME280;45631;51.962;5.974;2023-05-19T00:24:11;102564.88;;;8.72;100.00
59757;BME280;45631;51.962;5.974;2023-05-19T00:26:39;102558.09;;;8.65;100.00
59757;BME280;45631;51.962;5.974;2023-05-19T00:29:07;102564.28;;;8.62;100.00
59757;BME280;45631;51.962;5.974;2023-05-19T00:31:35;102558.19;;;8.62;100.00
59757;BME280;45631;51.962;5.974;2023-05-19T00:34:03;102559.25;;;8.56;100.00
59757;BME280;45631;51.962;5.974;2023-05-19T00:36:33;102553.13;;;8.56;100.00
59757;BME280;45631;51.962;5.974;2023-05-19T00:39:02;102553.13;;;8.56;100.00
59757;BME280;45631;51.962;5.974;2023-05-19T00:41:30;102545.44;;;8.50;100.00
59757;BME280;45631;51.962;5.974;2023-05-19T00:43:58;102545.63;;;8.42;100.00
59757;BME280;45631;51.962;5.974;2023-05-19T00:46:26;102541.28;;;8.41;100.00
59757;BME280;45631;51.962;5.974;2023-05-19T00:48:56;102542.22;;;8.40;100.00
59757;BME280;45631;51.962;5.974;2023-05-19T00:51:25;102537.03;;;8.37;100.00
59757;BME280;45631;51.962;5.974;2023-05-19T00:53:56;102531.00;;;8.35;100.00
59757;BME280;45631;51.962;5.974;2023-05-19T00:56:25;102533.66;;;8.32;100.00
59757;BME280;45631;51.962;5.974;2023-05-19T00:58:53;102535.50;;;8.29;100.00
59757;BME280;45631;51.962;5.974;2023-05-19T01:01:22;102540.63;;;8.33;100.00
59757;BME280;45631;51.962;5.974;2023-05-19T01:03:52;102536.34;;;8.30;100.00
59757;BME280;45631;51.962;5.974;2023-05-19T01:06:22;102541.69;;;8.27;100.00
59757;BME280;45631;51.962;5.974;2023-05-19T01:08:51;102539.91;;;8.29;100.00
59757;BME280;45631;51.962;5.974;2023-05-19T01:11:20;102540.78;;;8.28;100.00
59757;BME280;45631;51.962;5.974;2023-05-19T01:13:49;102538.97;;;8.30;100.00
59757;BME280;45631;51.962;5.974;2023-05-19T01:16:23;102541.72;;;8.25;100.00
59757;BME280;45631;51.962;5.974;2023-05-19T01:18:57;102541.78;;;8.24;100.00
59757;BME280;45631;51.962;5.974;2023-05-19T01:22:02;102535.09;;;8.12;100.00
59757;BME280;45631;51.962;5.974;2023-05-19T01:24:48;102545.59;;;8.12;100.00
59757;BME280;45631;51.962;5.974;2023-05-19T01:30:28;102540.56;;;8.04;100.00
59757;BME280;45631;51.962;5.974;2023-05-19T01:32:59;102543.97;;;8.08;100.00
59757;BME280;45631;51.962;5.974;2023-05-19T01:35:28;102540.63;;;8.01;100.00
59757;BME280;45631;51.962;5.974;2023-05-19T01:37:59;102546.75;;;8.02;100.00
59757;BME280;45631;51.962;5.974;2023-05-19T01:40:29;102541.53;;;8.00;100.00
59757;BME280;45631;51.962;5.974;2023-05-19T01:42:59;102545.19;;;7.94;100.00
59757;BME280;45631;51.962;5.974;2023-05-19T01:45:31;102549.41;;;8.00;100.00
59757;BME280;45631;51.962;5.974;2023-05-19T01:48:01;102543.31;;;8.00;100.00
59757;BME280;45631;51.962;5.974;2023-05-19T01:50:31;102543.50;;;7.93;100.00
59757;BME280;45631;51.962;5.974;2023-05-19T01:53:00;102547.91;;;7.91;100.00
59757;BME280;45631;51.962;5.974;2023-05-19T01:55:31;102547.91;;;7.91;100.00
59757;BME280;45631;51.962;5.974;2023-05-19T01:58:05;102536.72;;;7.85;100.00
59757;BME280;45631;51.962;5.974;2023-05-19T02:00:53;102540.19;;;7.87;100.00
59757;BME280;45631;51.962;5.974;2023-05-19T02:03:31;102535.81;;;7.86;100.00
59757;BME280;45631;51.962;5.974;2023-05-19T02:06:17;102535.03;;;7.82;100.00
59757;BME280;45631;51.962;5.974;2023-05-19T02:08:52;102531.63;;;7.80;100.00
59757;BME280;45631;51.962;5.974;2023-05-19T02:11:27;102533.41;;;7.78;100.00
59757;BME280;45631;51.962;5.974;2023-05-19T02:14:00;102528.22;;;7.76;100.00
59757;BME280;45631;51.962;5.974;2023-05-19T02:16:32;102529.06;;;7.77;100.00
59757;BME280;45631;51.962;5.974;2023-05-19T02:19:00;102528.28;;;7.73;100.00
59757;BME280;45631;51.962;5.974;2023-05-19T02:21:28;102522.22;;;7.71;100.00
59757;BME280;45631;51.962;5.974;2023-05-19T02:23:57;102523.16;;;7.70;100.00
59757;BME280;45631;51.962;5.974;2023-05-19T02:26:25;102516.22;;;7.68;100.00
59757;BME280;45631;51.962;5.974;2023-05-19T02:28:56;102520.53;;;7.70;100.00
59757;BME280;45631;51.962;5.974;2023-05-19T02:31:24;102518.84;;;7.68;100.00
59757;BME280;45631;51.962;5.974;2023-05-19T02:33:53;102524.66;;;7.79;100.00
59757;BME280;45631;51.962;5.974;2023-05-19T02:36:22;102520.53;;;7.69;100.00
59757;BME280;45631;51.962;5.974;2023-05-19T02:38:52;102516.13;;;7.71;100.00
59757;BME280;45631;51.962;5.974;2023-05-19T02:41:20;102515.28;;;7.70;100.00
59757;BME280;45631;51.962;5.974;2023-05-19T02:43:48;102512.66;;;7.70;100.00
59757;BME280;45631;51.962;5.974;2023-05-19T02:46:17;102506.72;;;7.64;100.00
59757;BME280;45631;51.962;5.974;2023-05-19T02:48:46;102513.94;;;7.55;100.00
59757;BME280;45631;51.962;5.974;2023-05-19T02:51:15;102511.53;;;7.46;100.00
59757;BME280;45631;51.962;5.974;2023-05-19T02:53:43;102506.06;;;7.55;100.00
59757;BME280;45631;51.962;5.974;2023-05-19T02:56:11;102513.09;;;7.53;100.00
59757;BME280;45631;51.962;5.974;2023-05-19T02:58:39;102503.47;;;7.55;100.00
59757;BME280;45631;51.962;5.974;2023-05-19T03:01:09;102501.03;;;7.48;100.00
59757;BME280;45631;51.962;5.974;2023-05-19T03:03:37;102497.53;;;7.49;100.00
59757;BME280;45631;51.962;5.974;2023-05-19T03:06:05;102500.00;;;7.53;100.00
59757;BME280;45631;51.962;5.974;2023-05-19T03:08:35;102499.78;;;7.63;100.00
59757;BME280;45631;51.962;5.974;2023-05-19T03:11:08;102506.97;;;7.54;100.00
59757;BME280;45631;51.962;5.974;2023-05-19T03:13:36;102500.16;;;7.47;100.00
59757;BME280;45631;51.962;5.974;2023-05-19T03:16:04;102501.16;;;7.41;100.00
59757;BME280;45631;51.962;5.974;2023-05-19T03:18:34;102501.22;;;7.40;100.00
59757;BME280;45631;51.962;5.974;2023-05-19T03:21:05;102510.97;;;7.33;100.00
59757;BME280;45631;51.962;5.974;2023-05-19T03:23:35;102510.91;;;7.36;100.00
59757;BME280;45631;51.962;5.974;2023-05-19T03:26:03;102510.91;;;7.36;100.00
59757;BME280;45631;51.962;5.974;2023-05-19T03:28:31;102508.31;;;7.35;100.00
59757;BME280;45631;51.962;5.974;2023-05-19T03:31:00;102509.19;;;7.35;100.00
59757;BME280;45631;51.962;5.974;2023-05-19T03:33:28;102502.19;;;7.36;100.00
59757;BME280;45631;51.962;5.974;2023-05-19T03:35:56;102504.94;;;7.31;100.00
59757;BME280;45631;51.962;5.974;2023-05-19T03:38:24;102509.25;;;7.34;100.00
59757;BME280;45631;51.962;5.974;2023-05-19T03:40:54;102507.66;;;7.26;100.00
59757;BME280;45631;51.962;5.974;2023-05-19T03:43:22;102507.81;;;7.20;100.00
59757;BME280;45631;51.962;5.974;2023-05-19T03:45:50;102515.50;;;7.26;100.00
59757;BME280;45631;51.962;5.974;2023-05-19T03:48:19;102518.09;;;7.28;100.00
59757;BME280;45631;51.962;5.974;2023-05-19T03:50:50;102506.72;;;7.29;100.00
59757;BME280;45631;51.962;5.974;2023-05-19T03:53:18;102512.03;;;7.26;100.00
59757;BME280;45631;51.962;5.974;2023-05-19T03:55:46;102507.78;;;7.22;100.00
59757;BME280;45631;51.962;5.974;2023-05-19T03:58:16;102513.00;;;7.22;100.00
59757;BME280;45631;51.962;5.974;2023-05-19T04:00:44;102515.53;;;7.25;100.00
59757;BME280;45631;51.962;5.974;2023-05-19T04:03:13;102521.66;;;7.24;100.00
59757;BME280;45631;51.962;5.974;2023-05-19T04:05:42;102518.28;;;7.20;100.00
59757;BME280;45631;51.962;5.974;2023-05-19T04:08:10;102524.44;;;7.18;100.00
59757;BME280;45631;51.962;5.974;2023-05-19T04:10:38;102524.38;;;7.21;100.00
59757;BME280;45631;51.962;5.974;2023-05-19T04:13:06;102531.19;;;7.26;100.00
59757;BME280;45631;51.962;5.974;2023-05-19T04:15:36;102525.16;;;7.24;100.00
59757;BME280;45631;51.962;5.974;2023-05-19T04:18:04;102525.91;;;7.30;100.00
59757;BME280;45631;51.962;5.974;2023-05-19T04:20:34;102527.59;;;7.31;100.00
59757;BME280;45631;51.962;5.974;2023-05-19T04:23:03;102531.16;;;7.30;100.00
59757;BME280;45631;51.962;5.974;2023-05-19T04:25:31;102532.13;;;7.24;100.00
59757;BME280;45631;51.962;5.974;2023-05-19T04:27:59;102531.16;;;7.30;100.00
59757;BME280;45631;51.962;5.974;2023-05-19T04:30:29;102531.91;;;7.33;100.00
59757;BME280;45631;51.962;5.974;2023-05-19T04:32:58;102525.53;;;7.45;100.00
59757;BME280;45631;51.962;5.974;2023-05-19T04:35:27;102526.50;;;7.41;100.00
59757;BME280;45631;51.962;5.974;2023-05-19T04:37:55;102523.72;;;7.47;100.00
59757;BME280;45631;51.962;5.974;2023-05-19T04:40:26;102517.81;;;7.39;100.00
59757;BME280;45631;51.962;5.974;2023-05-19T04:42:57;102518.59;;;7.42;100.00
59757;BME280;45631;51.962;5.974;2023-05-19T04:45:28;102520.19;;;7.48;100.00
59757;BME280;45631;51.962;5.974;2023-05-19T04:48:00;102516.69;;;7.49;100.00
59757;BME280;45631;51.962;5.974;2023-05-19T04:50:28;102515.84;;;7.49;100.00
59757;BME280;45631;51.962;5.974;2023-05-19T04:52:58;102512.13;;;7.57;100.00
59757;BME280;45631;51.962;5.974;2023-05-19T04:55:26;102513.00;;;7.56;100.00
59757;BME280;45631;51.962;5.974;2023-05-19T04:57:57;102511.13;;;7.61;100.00
59757;BME280;45631;51.962;5.974;2023-05-19T05:00:25;102514.72;;;7.57;100.00
59757;BME280;45631;51.962;5.974;2023-05-19T05:02:53;102509.53;;;7.56;100.00
59757;BME280;45631;51.962;5.974;2023-05-19T05:05:24;102509.34;;;7.64;100.00
59757;BME280;45631;51.962;5.974;2023-05-19T05:07:52;102516.13;;;7.71;100.00
59757;BME280;45631;51.962;5.974;2023-05-19T05:10:20;102517.78;;;7.75;100.00
59757;BME280;45631;51.962;5.974;2023-05-19T05:12:49;102510.72;;;7.78;100.00
59757;BME280;45631;51.962;5.974;2023-05-19T05:15:19;102514.81;;;7.87;100.00
59757;BME280;45631;51.962;5.974;2023-05-19T05:17:48;102521.56;;;7.96;100.00
59757;BME280;45631;51.962;5.974;2023-05-19T05:20:20;102520.56;;;8.02;100.00
59757;BME280;45631;51.962;5.974;2023-05-19T05:22:50;102522.19;;;8.06;100.00
59757;BME280;45631;51.962;5.974;2023-05-19T05:25:19;102522.00;;;8.12;100.00
59757;BME280;45631;51.962;5.974;2023-05-19T05:27:48;102525.56;;;8.09;100.00
59757;BME280;45631;51.962;5.974;2023-05-19T05:30:16;102524.50;;;8.17;100.00
59757;BME280;45631;51.962;5.974;2023-05-19T05:32:44;102531.16;;;8.28;100.00
59757;BME280;45631;51.962;5.974;2023-05-19T05:35:13;102529.16;;;8.37;100.00
59757;BME280;45631;51.962;5.974;2023-05-19T05:37:41;102535.00;;;8.48;100.00
59757;BME280;45631;51.962;5.974;2023-05-19T05:40:13;102532.13;;;8.56;100.00
59757;BME280;45631;51.962;5.974;2023-05-19T05:42:42;102534.66;;;8.60;100.00
59757;BME280;45631;51.962;5.974;2023-05-19T05:45:10;102527.47;;;8.66;100.00
59757;BME280;45631;51.962;5.974;2023-05-19T05:47:39;102531.59;;;8.74;100.00
59757;BME280;45631;51.962;5.974;2023-05-19T05:50:08;102534.34;;;8.70;100.00
59757;BME280;45631;51.962;5.974;2023-05-19T05:52:38;102529.78;;;8.76;100.00
59757;BME280;45631;51.962;5.974;2023-05-19T05:55:09;102530.38;;;8.86;100.00
59757;BME280;45631;51.962;5.974;2023-05-19T05:57:39;102534.50;;;8.93;100.00
59757;BME280;45631;51.962;5.974;2023-05-19T06:00:08;102537.69;;;9.03;100.00
59757;BME280;45631;51.962;5.974;2023-05-19T06:02:43;102537.47;;;9.11;100.00
59757;BME280;45631;51.962;5.974;2023-05-19T06:05:13;102542.31;;;9.23;100.00
59757;BME280;45631;51.962;5.974;2023-05-19T06:07:42;102536.72;;;9.34;100.00
59757;BME280;45631;51.962;5.974;2023-05-19T06:10:10;102539.00;;;9.45;100.00
59757;BME280;45631;51.962;5.974;2023-05-19T06:12:40;102527.97;;;9.60;100.00
59757;BME280;45631;51.962;5.974;2023-05-19T06:15:09;102527.66;;;9.70;100.00
59757;BME280;45631;51.962;5.974;2023-05-19T06:17:37;102530.81;;;9.79;100.00
59757;BME280;45631;51.962;5.974;2023-05-19T06:20:07;102525.31;;;9.86;100.00
59757;BME280;45631;51.962;5.974;2023-05-19T06:22:35;102521.19;;;10.04;100.00
59757;BME280;45631;51.962;5.974;2023-05-19T06:25:05;102526.06;;;10.14;100.00
59757;BME280;45631;51.962;5.974;2023-05-19T06:27:34;102526.50;;;10.26;100.00
59757;BME280;45631;51.962;5.974;2023-05-19T06:30:05;102528.59;;;10.41;100.00
59757;BME280;45631;51.962;5.974;2023-05-19T06:32:34;102527.00;;;10.61;100.00
59757;BME280;45631;51.962;5.974;2023-05-19T06:35:03;102534.34;;;10.75;100.00
59757;BME280;45631;51.962;5.974;2023-05-19T06:37:31;102526.88;;;10.86;100.00
59757;BME280;45631;51.962;5.974;2023-05-19T06:39:59;102526.28;;;11.02;100.00
59757;BME280;45631;51.962;5.974;2023-05-19T06:42:27;102526.69;;;11.13;100.00
59757;BME280;45631;51.962;5.974;2023-05-19T06:44:58;102525.94;;;11.31;100.00
59757;BME280;45631;51.962;5.974;2023-05-19T06:47:28;102523.97;;;11.37;100.00
59757;BME280;45631;51.962;5.974;2023-05-19T06:49:56;102524.56;;;11.43;100.00
59757;BME280;45631;51.962;5.974;2023-05-19T06:52:24;102527.66;;;11.53;100.00
59757;BME280;45631;51.962;5.974;2023-05-19T06:54:55;102528.53;;;11.74;100.00
59757;BME280;45631;51.962;5.974;2023-05-19T06:57:23;102530.97;;;11.79;100.00
59757;BME280;45631;51.962;5.974;2023-05-19T06:59:51;102532.22;;;11.91;100.00
59757;BME280;45631;51.962;5.974;2023-05-19T07:02:19;102529.13;;;12.02;100.00
59757;BME280;45631;51.962;5.974;2023-05-19T07:04:49;102520.03;;;12.09;100.00
59757;BME280;45631;51.962;5.974;2023-05-19T07:07:19;102521.84;;;12.27;100.00
59757;BME280;45631;51.962;5.974;2023-05-19T07:09:48;102524.97;;;12.36;100.00
59757;BME280;45631;51.962;5.974;2023-05-19T07:12:16;102525.09;;;12.51;100.00
59757;BME280;45631;51.962;5.974;2023-05-19T07:14:44;102523.69;;;12.63;100.00
59757;BME280;45631;51.962;5.974;2023-05-19T07:17:12;102525.25;;;12.67;100.00
59757;BME280;45631;51.962;5.974;2023-05-19T07:19:41;102520.13;;;12.64;100.00
59757;BME280;45631;51.962;5.974;2023-05-19T07:22:10;102527.69;;;12.72;100.00
59757;BME280;45631;51.962;5.974;2023-05-19T07:24:39;102527.88;;;12.87;100.00
59757;BME280;45631;51.962;5.974;2023-05-19T07:27:08;102533.03;;;13.07;100.00
59757;BME280;45631;51.962;5.974;2023-05-19T07:29:36;102531.50;;;13.21;100.00
59757;BME280;45631;51.962;5.974;2023-05-19T07:32:05;102527.59;;;13.28;100.00
59757;BME280;45631;51.962;5.974;2023-05-19T07:34:33;102530.69;;;13.38;100.00
59757;BME280;45631;51.962;5.974;2023-05-19T07:37:02;102529.75;;;13.56;100.00
59757;BME280;45631;51.962;5.974;2023-05-19T07:39:32;102529.56;;;13.77;100.00
59757;BME280;45631;51.962;5.974;2023-05-19T07:42:00;102532.00;;;13.81;100.00
59757;BME280;45631;51.962;5.974;2023-05-19T07:44:31;102524.19;;;13.96;100.00
59757;BME280;45631;51.962;5.974;2023-05-19T07:47:00;102519.13;;;14.25;100.00
59757;BME280;45631;51.962;5.974;2023-05-19T07:49:28;102522.66;;;14.41;100.00
59757;BME280;45631;51.962;5.974;2023-05-19T07:51:56;102526.66;;;14.48;100.00
59757;BME280;45631;51.962;5.974;2023-05-19T07:54:24;102525.25;;;14.75;100.00
59757;BME280;45631;51.962;5.974;2023-05-19T07:56:54;102523.09;;;14.81;100.00
59757;BME280;45631;51.962;5.974;2023-05-19T07:59:22;102520.44;;;14.97;100.00
59757;BME280;45631;51.962;5.974;2023-05-19T08:01:51;102520.75;;;15.07;100.00
59757;BME280;45631;51.962;5.974;2023-05-19T08:04:19;102522.78;;;15.18;100.00
59757;BME280;45631;51.962;5.974;2023-05-19T08:06:47;102512.66;;;15.41;100.00
59757;BME280;45631;51.962;5.974;2023-05-19T08:09:15;102509.16;;;15.54;100.00
59757;BME280;45631;51.962;5.974;2023-05-19T08:11:44;102511.38;;;15.77;100.00
59757;BME280;45631;51.962;5.974;2023-05-19T08:14:15;102508.78;;;15.91;100.00
59757;BME280;45631;51.962;5.974;2023-05-19T08:16:43;102504.50;;;16.17;100.00
59757;BME280;45631;51.962;5.974;2023-05-19T08:19:15;102503.97;;;16.39;100.00
59757;BME280;45631;51.962;5.974;2023-05-19T08:21:43;102498.22;;;16.60;100.00
59757;BME280;45631;51.962;5.974;2023-05-19T08:24:11;102503.63;;;16.73;100.00
59757;BME280;45631;51.962;5.974;2023-05-19T08:26:39;102501.41;;;16.80;100.00
59757;BME280;45631;51.962;5.974;2023-05-19T08:29:07;102499.75;;;16.92;100.00
59757;BME280;45631;51.962;5.974;2023-05-19T08:31:37;102496.13;;;17.07;100.00
59757;BME280;45631;51.962;5.974;2023-05-19T08:34:05;102492.31;;;17.24;100.00
59757;BME280;45631;51.962;5.974;2023-05-19T08:36:33;102490.97;;;17.44;100.00
59757;BME280;45631;51.962;5.974;2023-05-19T08:39:02;102482.03;;;17.58;96.07
59757;BME280;45631;51.962;5.974;2023-05-19T08:41:30;102475.44;;;17.64;97.10
59757;BME280;45631;51.962;5.974;2023-05-19T08:43:58;102480.19;;;17.84;99.67
59757;BME280;45631;51.962;5.974;2023-05-19T08:46:28;102467.34;;;18.04;99.35
59757;BME280;45631;51.962;5.974;2023-05-19T08:49:03;102464.69;;;18.28;95.74
59757;BME280;45631;51.962;5.974;2023-05-19T08:51:37;102466.31;;;18.55;89.85
59757;BME280;45631;51.962;5.974;2023-05-19T08:54:11;102462.78;;;18.79;84.81
59757;BME280;45631;51.962;5.974;2023-05-19T08:56:42;102458.28;;;18.92;81.76
59757;BME280;45631;51.962;5.974;2023-05-19T08:59:12;102456.47;;;18.92;74.87
59757;BME280;45631;51.962;5.974;2023-05-19T09:01:42;102448.91;;;19.22;73.38
59757;BME280;45631;51.962;5.974;2023-05-19T09:04:13;102447.00;;;19.35;73.30
59757;BME280;45631;51.962;5.974;2023-05-19T09:06:42;102443.88;;;19.53;70.87
59757;BME280;45631;51.962;5.974;2023-05-19T09:09:13;102444.22;;;19.37;65.85
59757;BME280;45631;51.962;5.974;2023-05-19T09:11:44;102443.63;;;19.45;64.10
59757;BME280;45631;51.962;5.974;2023-05-19T09:14:13;102440.22;;;19.42;62.36
59757;BME280;45631;51.962;5.974;2023-05-19T09:16:41;102450.78;;;19.78;64.13
59757;BME280;45631;51.962;5.974;2023-05-19T09:19:13;102431.78;;;19.83;63.30
59757;BME280;45631;51.962;5.974;2023-05-19T09:21:42;102442.19;;;19.74;61.05
59757;BME280;45631;51.962;5.974;2023-05-19T09:24:11;102432.72;;;19.93;58.65
59757;BME280;45631;51.962;5.974;2023-05-19T09:26:40;102435.41;;;19.93;55.98
59757;BME280;45631;51.962;5.974;2023-05-19T09:29:12;102429.81;;;20.07;55.44
59757;BME280;45631;51.962;5.974;2023-05-19T09:31:47;102420.91;;;20.18;54.85
59757;BME280;45631;51.962;5.974;2023-05-19T09:34:18;102425.88;;;20.23;53.28
59757;BME280;45631;51.962;5.974;2023-05-19T09:36:47;102422.84;;;20.60;52.36
59757;BME280;45631;51.962;5.974;2023-05-19T09:39:17;102421.75;;;20.19;52.52
59757;BME280;45631;51.962;5.974;2023-05-19T09:41:46;102422.19;;;20.47;52.74
59757;BME280;45631;51.962;5.974;2023-05-19T09:44:21;102421.28;;;20.57;51.71
59757;BME280;45631;51.962;5.974;2023-05-19T09:46:51;102426.25;;;20.62;50.21
59757;BME280;45631;51.962;5.974;2023-05-19T09:49:22;102419.06;;;20.74;50.49
59757;BME280;45631;51.962;5.974;2023-05-19T09:51:52;102420.09;;;20.83;47.76
59757;BME280;45631;51.962;5.974;2023-05-19T09:54:21;102410.50;;;20.48;48.69
59757;BME280;45631;51.962;5.974;2023-05-19T09:56:51;102419.25;;;20.82;49.12
59757;BME280;45631;51.962;5.974;2023-05-19T09:59:24;102419.22;;;21.15;49.51
59757;BME280;45631;51.962;5.974;2023-05-19T10:01:57;102417.69;;;21.01;48.58
59757;BME280;45631;51.962;5.974;2023-05-19T10:04:29;102413.44;;;21.19;48.66
59757;BME280;45631;51.962;5.974;2023-05-19T10:06:58;102413.94;;;21.34;48.84
59757;BME280;45631;51.962;5.974;2023-05-19T10:09:27;102421.38;;;21.31;47.05
59757;BME280;45631;51.962;5.974;2023-05-19T10:11:57;102427.78;;;21.39;49.74
59757;BME280;45631;51.962;5.974;2023-05-19T10:14:26;102418.94;;;21.49;48.90
59757;BME280;45631;51.962;5.974;2023-05-19T10:16:56;102412.00;;;21.67;47.71
59757;BME280;45631;51.962;5.974;2023-05-19T10:19:26;102410.94;;;21.89;47.91
59757;BME280;45631;51.962;5.974;2023-05-19T10:21:55;102404.09;;;22.16;49.84
59757;BME280;45631;51.962;5.974;2023-05-19T10:24:24;102399.94;;;21.83;47.60
59757;BME280;45631;51.962;5.974;2023-05-19T10:26:56;102400.47;;;21.45;48.09
59757;BME280;45631;51.962;5.974;2023-05-19T10:29:29;102390.59;;;21.67;48.16
59757;BME280;45631;51.962;5.974;2023-05-19T10:32:00;102393.72;;;21.72;46.12
59757;BME280;45631;51.962;5.974;2023-05-19T10:34:52;102379.09;;;21.96;46.88
59757;BME280;45631;51.962;5.974;2023-05-19T10:37:36;102384.47;;;21.96;45.39
59757;BME280;45631;51.962;5.974;2023-05-19T10:40:11;102384.22;;;21.99;46.42
59757;BME280;45631;51.962;5.974;2023-05-19T10:42:46;102389.53;;;21.89;46.17
59757;BME280;45631;51.962;5.974;2023-05-19T10:45:22;102388.66;;;21.69;47.08
59757;BME280;45631;51.962;5.974;2023-05-19T10:47:54;102383.63;;;21.95;46.60
59757;BME280;45631;51.962;5.974;2023-05-19T10:50:23;102380.13;;;21.54;46.64
59757;BME280;45631;51.962;5.974;2023-05-19T10:52:52;102382.81;;;21.54;45.16
59757;BME280;45631;51.962;5.974;2023-05-19T10:55:45;102386.00;;;21.89;44.82
59757;BME280;45631;51.962;5.974;2023-05-19T10:58:14;102384.66;;;22.24;45.98
59757;BME280;45631;51.962;5.974;2023-05-19T11:00:42;102384.09;;;22.10;43.66
59757;BME280;45631;51.962;5.974;2023-05-19T11:03:12;102380.72;;;22.67;43.50
59757;BME280;45631;51.962;5.974;2023-05-19T11:05:44;102373.47;;;22.97;41.56
59757;BME280;45631;51.962;5.974;2023-05-19T11:08:30;102369.56;;;22.82;40.49
59757;BME280;45631;51.962;5.974;2023-05-19T11:11:11;102376.53;;;23.12;41.01
59757;BME280;45631;51.962;5.974;2023-05-19T11:13:46;102370.22;;;23.03;41.07
59757;BME280;45631;51.962;5.974;2023-05-19T11:16:18;102375.84;;;23.10;40.98
59757;BME280;45631;51.962;5.974;2023-05-19T11:18:48;102370.47;;;23.20;40.35
59757;BME280;45631;51.962;5.974;2023-05-19T11:21:19;102360.34;;;23.69;41.67
59757;BME280;45631;51.962;5.974;2023-05-19T11:23:49;102369.00;;;23.35;39.00
59757;BME280;45631;51.962;5.974;2023-05-19T11:26:40;102368.66;;;23.76;39.04
59757;BME280;45631;51.962;5.974;2023-05-19T11:29:09;102369.44;;;24.14;40.80
59757;BME280;45631;51.962;5.974;2023-05-19T11:31:38;102362.13;;;23.88;38.25
59757;BME280;45631;51.962;5.974;2023-05-19T11:34:07;102364.28;;;24.21;37.61
59757;BME280;45631;51.962;5.974;2023-05-19T11:36:37;102354.38;;;24.21;36.37
59757;BME280;45631;51.962;5.974;2023-05-19T11:39:07;102359.66;;;24.67;38.18
59757;BME280;45631;51.962;5.974;2023-05-19T11:41:38;102365.06;;;24.31;36.68
59757;BME280;45631;51.962;5.974;2023-05-19T11:44:09;102358.69;;;24.32;36.54
59757;BME280;45631;51.962;5.974;2023-05-19T11:46:37;102360.28;;;24.43;37.61
59757;BME280;45631;51.962;5.974;2023-05-19T11:49:06;102355.03;;;24.59;36.96
59757;BME280;45631;51.962;5.974;2023-05-19T11:51:36;102350.09;;;24.99;35.25
59757;BME280;45631;51.962;5.974;2023-05-19T11:54:05;102353.53;;;25.09;35.32
59757;BME280;45631;51.962;5.974;2023-05-19T11:56:33;102358.47;;;25.22;35.85
59757;BME280;45631;51.962;5.974;2023-05-19T11:59:02;102348.75;;;25.21;34.82
59757;BME280;45631;51.962;5.974;2023-05-19T12:01:31;102350.19;;;25.07;34.42
59757;BME280;45631;51.962;5.974;2023-05-19T12:03:59;102348.03;;;24.85;35.15
59757;BME280;45631;51.962;5.974;2023-05-19T12:06:28;102343.56;;;25.02;35.96
59757;BME280;45631;51.962;5.974;2023-05-19T12:08:58;102349.94;;;24.92;36.59
59757;BME280;45631;51.962;5.974;2023-05-19T12:11:27;102349.50;;;25.05;35.35
59757;BME280;45631;51.962;5.974;2023-05-19T12:13:57;102339.69;;;25.30;35.43
59757;BME280;45631;51.962;5.974;2023-05-19T12:16:35;102336.09;;;25.56;34.98
59757;BME280;45631;51.962;5.974;2023-05-19T12:19:04;102337.00;;;25.65;34.85
59757;BME280;45631;51.962;5.974;2023-05-19T12:21:33;102336.66;;;25.68;34.55
59757;BME280;45631;51.962;5.974;2023-05-19T12:24:04;102333.75;;;26.12;34.46
59757;BME280;45631;51.962;5.974;2023-05-19T12:26:34;102332.34;;;26.00;34.25
59757;BME280;45631;51.962;5.974;2023-05-19T12:29:04;102328.72;;;25.58;33.35
59757;BME280;45631;51.962;5.974;2023-05-19T12:31:33;102327.81;;;25.41;34.76
59757;BME280;45631;51.962;5.974;2023-05-19T12:34:02;102331.47;;;25.06;35.36
59757;BME280;45631;51.962;5.974;2023-05-19T12:36:30;102330.56;;;25.23;36.99
59757;BME280;45631;51.962;5.974;2023-05-19T12:38:59;102326.06;;;25.75;37.16
59757;BME280;45631;51.962;5.974;2023-05-19T12:41:28;102322.22;;;25.86;35.67
59757;BME280;45631;51.962;5.974;2023-05-19T12:43:57;102321.22;;;25.87;35.95
59757;BME280;45631;51.962;5.974;2023-05-19T12:46:25;102320.25;;;26.04;35.27
59757;BME280;45631;51.962;5.974;2023-05-19T12:48:57;102307.78;;;26.03;34.61
59757;BME280;45631;51.962;5.974;2023-05-19T12:51:26;102305.50;;;25.74;35.66
59757;BME280;45631;51.962;5.974;2023-05-19T12:53:56;102306.03;;;25.86;34.25
59757;BME280;45631;51.962;5.974;2023-05-19T12:56:24;102313.00;;;26.05;33.16
59757;BME280;45631;51.962;5.974;2023-05-19T12:58:55;102310.09;;;25.81;32.96
59757;BME280;45631;51.962;5.974;2023-05-19T13:01:23;102297.78;;;25.79;33.97
59757;BME280;45631;51.962;5.974;2023-05-19T13:03:51;102307.03;;;25.68;35.24
59757;BME280;45631;51.962;5.974;2023-05-19T13:06:20;102304.53;;;25.91;34.05